Time;durP1;ratioP1;P1;durP2;ratioP2;P2;SDS_P1;SDS_P2;PMS_P1;PMS_P2;Temp;Humidity;BMP_temperature;BMP_pressure;BME280_temperature;BME280_humidity;BME280_pressure;Samples;Min_cycle;Max_cycle;Signal;HPM_P1;HPM_P2
2023/02/03 00:00:30;;;;;;;37.30;9.98;;;;;;;;;;4955626;28;20029;-71
2023/02/03 00:02:56;;;;;;;20.80;7.85;;;;;;;;;;4972011;28;20031;-71
2023/02/03 00:05:21;;;;;;;20.92;8.85;;;;;;;;;;4974024;28;20042;-71
2023/02/03 00:07:46;;;;;;;25.08;9.57;;;;;;;;;;4970069;28;20238;-70
2023/02/03 00:10:12;;;;;;;23.10;10.00;;;;;;;;;;4972143;28;20022;-71
2023/02/03 00:12:37;;;;;;;25.27;9.25;;;;;;;;;;4975282;28;20498;-71
2023/02/03 00:15:02;;;;;;;20.85;8.15;;;;;;;;;;4969979;28;20029;-71
2023/02/03 00:17:28;;;;;;;17.45;8.75;;;;;;;;;;4971166;28;20121;-71
2023/02/03 00:19:53;;;;;;;23.42;10.07;;;;;;;;;;4970312;28;20049;-71
2023/02/03 00:22:18;;;;;;;9.13;4.47;;;;;;;;;;4973063;28;20097;-71
2023/02/03 00:24:43;;;;;;;14.65;6.50;;;;;;;;;;4976339;28;20659;-71
2023/02/03 00:27:08;;;;;;;6.23;3.67;;;;;;;;;;4972351;28;20049;-71
2023/02/03 00:29:33;;;;;;;17.77;8.00;;;;;;;;;;4972257;28;20290;-70
2023/02/03 00:31:59;;;;;;;20.73;6.70;;;;;;;;;;4971010;28;20344;-70
2023/02/03 00:34:28;;;;;;;14.27;6.82;;;;;;;;;;4971071;28;20274;-71
2023/02/03 00:36:54;;;;;;;14.73;4.70;;;;;;;;;;4971529;28;20594;-71
2023/02/03 00:39:19;;;;;;;13.57;5.75;;;;;;;;;;4971564;28;20034;-71
2023/02/03 00:41:44;;;;;;;16.63;7.33;;;;;;;;;;4970955;28;20078;-71
2023/02/03 00:44:09;;;;;;;13.67;6.87;;;;;;;;;;4968853;28;20274;-71
2023/02/03 00:46:35;;;;;;;17.92;6.40;;;;;;;;;;4966921;28;20806;-71
2023/02/03 00:49:00;;;;;;;11.32;5.65;;;;;;;;;;4950799;28;20038;-71
2023/02/03 00:51:25;;;;;;;18.58;5.13;;;;;;;;;;4972176;28;20023;-71
2023/02/03 00:53:51;;;;;;;15.23;5.10;;;;;;;;;;4970785;28;20206;-71
2023/02/03 00:56:16;;;;;;;14.20;5.53;;;;;;;;;;4971925;28;20332;-71
2023/02/03 00:58:41;;;;;;;23.00;5.20;;;;;;;;;;4970022;28;20077;-71
2023/02/03 01:01:06;;;;;;;19.73;5.43;;;;;;;;;;4971029;28;20281;-71
2023/02/03 01:03:32;;;;;;;8.43;3.63;;;;;;;;;;4971838;28;20476;-71
2023/02/03 01:06:07;;;;;;;6.07;2.65;;;;;;;;;;4970750;28;20570;-71
2023/02/03 01:08:32;;;;;;;13.20;5.05;;;;;;;;;;4975718;28;20034;-71
2023/02/03 01:10:57;;;;;;;20.97;3.53;;;;;;;;;;4971429;28;20085;-71
2023/02/03 01:13:23;;;;;;;19.93;5.87;;;;;;;;;;4969486;28;20278;-71
2023/02/03 01:15:48;;;;;;;17.10;5.67;;;;;;;;;;4969045;28;20365;-71
2023/02/03 01:18:13;;;;;;;7.93;3.63;;;;;;;;;;4974117;28;20734;-71
2023/02/03 01:20:38;;;;;;;17.58;6.07;;;;;;;;;;4970777;28;20270;-70
2023/02/03 01:23:03;;;;;;;20.25;7.00;;;;;;;;;;4971154;28;20536;-71
2023/02/03 01:25:29;;;;;;;20.30;6.90;;;;;;;;;;4969776;28;20039;-71
2023/02/03 01:27:54;;;;;;;30.48;6.90;;;;;;;;;;4971088;28;20246;-70
2023/02/03 01:30:19;;;;;;;22.55;7.28;;;;;;;;;;4971084;28;20018;-70
2023/02/03 01:32:44;;;;;;;23.05;6.20;;;;;;;;;;4970771;28;20026;-70
2023/02/03 01:35:10;;;;;;;11.20;4.90;;;;;;;;;;4971483;28;20023;-70
2023/02/03 01:37:35;;;;;;;20.80;6.00;;;;;;;;;;4969652;28;20274;-70
2023/02/03 01:40:00;;;;;;;15.93;4.90;;;;;;;;;;4969049;28;20278;-71
2023/02/03 01:42:25;;;;;;;19.40;4.87;;;;;;;;;;4971087;28;20274;-70
2023/02/03 01:44:51;;;;;;;18.17;5.70;;;;;;;;;;4969994;28;20266;-70
2023/02/03 01:47:25;;;;;;;20.60;5.95;;;;;;;;;;4970252;28;20023;-70
2023/02/03 01:49:53;;;;;;;16.60;5.78;;;;;;;;;;4970556;28;20110;-71
2023/02/03 01:52:18;;;;;;;27.77;6.95;;;;;;;;;;4968726;28;20023;-70
2023/02/03 01:54:44;;;;;;;16.65;5.78;;;;;;;;;;4968130;28;20031;-70
2023/02/03 01:57:14;;;;;;;32.50;6.30;;;;;;;;;;4970936;28;20065;-70
2023/02/03 01:59:40;;;;;;;24.05;7.60;;;;;;;;;;4969730;28;20450;-70
2023/02/03 02:02:06;;;;;;;19.00;5.70;;;;;;;;;;4971179;28;20114;-70
2023/02/03 02:04:35;;;;;;;22.92;6.45;;;;;;;;;;4969601;28;20035;-71
2023/02/03 02:07:01;;;;;;;26.67;6.82;;;;;;;;;;4967614;28;20050;-70
2023/02/03 02:09:26;;;;;;;18.17;4.55;;;;;;;;;;4969122;28;20046;-70
2023/02/03 02:11:51;;;;;;;19.50;5.93;;;;;;;;;;4971188;28;20050;-70
2023/02/03 02:14:17;;;;;;;18.92;5.93;;;;;;;;;;4970190;28;20023;-70
2023/02/03 02:16:42;;;;;;;18.95;4.93;;;;;;;;;;4969905;28;20054;-70
2023/02/03 02:19:26;;;;;;;19.40;4.40;;;;;;;;;;4970381;28;20018;-70
2023/02/03 02:21:58;;;;;;;20.02;5.75;;;;;;;;;;4966967;28;20449;-70
2023/02/03 02:24:53;;;;;;;20.98;5.10;;;;;;;;;;4970232;28;20027;-70
2023/02/03 02:27:37;;;;;;;16.00;3.95;;;;;;;;;;4965438;28;20031;-70
2023/02/03 02:30:11;;;;;;;20.77;3.88;;;;;;;;;;4969689;28;20015;-70
2023/02/03 02:32:46;;;;;;;12.63;4.68;;;;;;;;;;4968759;28;20088;-71
2023/02/03 02:35:11;;;;;;;17.17;4.28;;;;;;;;;;4968309;28;20105;-70
2023/02/03 02:37:43;;;;;;;18.52;4.93;;;;;;;;;;4969465;28;20066;-70
2023/02/03 02:40:22;;;;;;;24.63;4.20;;;;;;;;;;4969192;28;20237;-70
2023/02/03 02:43:00;;;;;;;14.07;4.85;;;;;;;;;;4969169;28;20039;-70
2023/02/03 02:45:30;;;;;;;21.27;5.60;;;;;;;;;;4969803;28;20038;-70
2023/02/03 02:48:00;;;;;;;19.08;4.18;;;;;;;;;;4968817;28;20327;-70
2023/02/03 02:50:27;;;;;;;18.77;5.88;;;;;;;;;;4971148;28;20026;-70
2023/02/03 02:52:53;;;;;;;23.40;6.47;;;;;;;;;;4973814;28;20046;-70
2023/02/03 02:55:26;;;;;;;14.43;5.30;;;;;;;;;;4973659;28;20041;-70
2023/02/03 02:57:54;;;;;;;23.05;5.80;;;;;;;;;;4973330;28;20507;-70
2023/02/03 03:00:19;;;;;;;18.98;6.25;;;;;;;;;;4972438;28;20046;-71
2023/02/03 03:02:44;;;;;;;15.85;4.68;;;;;;;;;;4974618;28;20081;-70
2023/02/03 03:05:10;;;;;;;20.08;6.22;;;;;;;;;;4970136;28;20026;-70
2023/02/03 03:07:40;;;;;;;23.17;6.65;;;;;;;;;;4972839;28;20034;-70
2023/02/03 03:10:08;;;;;;;23.17;5.40;;;;;;;;;;4978383;28;20025;-71
2023/02/03 03:12:35;;;;;;;13.20;5.25;;;;;;;;;;4979726;28;20250;-70
2023/02/03 03:15:02;;;;;;;19.73;4.95;;;;;;;;;;4972982;28;20274;-70
2023/02/03 03:17:30;;;;;;;19.88;5.25;;;;;;;;;;4972434;28;20031;-70
2023/02/03 03:19:56;;;;;;;13.88;4.10;;;;;;;;;;4971432;28;20395;-70
2023/02/03 03:22:27;;;;;;;18.40;6.07;;;;;;;;;;4979460;28;20037;-70
2023/02/03 03:24:57;;;;;;;26.67;6.25;;;;;;;;;;4978234;28;20506;-70
2023/02/03 03:27:23;;;;;;;17.90;5.03;;;;;;;;;;4972203;28;20023;-71
2023/02/03 03:30:08;;;;;;;18.95;5.63;;;;;;;;;;4969870;28;20038;-70
2023/02/03 03:32:34;;;;;;;22.98;7.03;;;;;;;;;;4968622;28;20026;-70
2023/02/03 03:35:00;;;;;;;28.02;5.47;;;;;;;;;;4970107;28;20499;-70
2023/02/03 03:37:36;;;;;;;21.42;5.53;;;;;;;;;;4974388;28;20085;-70
2023/02/03 03:40:09;;;;;;;24.90;6.93;;;;;;;;;;4972364;28;20114;-70
2023/02/03 03:42:41;;;;;;;21.08;5.93;;;;;;;;;;4974465;28;20023;-70
2023/02/03 03:45:13;;;;;;;23.23;7.03;;;;;;;;;;4965470;28;20066;-71
2023/02/03 03:47:56;;;;;;;18.30;5.45;;;;;;;;;;4974322;28;20032;-70
2023/02/03 03:50:32;;;;;;;21.95;5.82;;;;;;;;;;4967368;28;20308;-70
2023/02/03 03:53:00;;;;;;;16.88;6.20;;;;;;;;;;4975245;28;20030;-71
2023/02/03 03:55:26;;;;;;;13.73;5.60;;;;;;;;;;4972471;28;20027;-70
2023/02/03 03:57:58;;;;;;;21.10;6.78;;;;;;;;;;4968225;28;20030;-70
2023/02/03 04:00:26;;;;;;;29.23;7.70;;;;;;;;;;4972707;28;20019;-70
2023/02/03 04:02:53;;;;;;;16.98;5.28;;;;;;;;;;4972469;28;20537;-71
2023/02/03 04:05:19;;;;;;;20.45;5.90;;;;;;;;;;4973732;28;20121;-70
2023/02/03 04:07:45;;;;;;;25.00;5.50;;;;;;;;;;4973029;28;20562;-70
2023/02/03 04:10:19;;;;;;;19.33;5.35;;;;;;;;;;4971343;28;20046;-70
2023/02/03 04:12:44;;;;;;;23.52;5.32;;;;;;;;;;4971584;28;20027;-70
2023/02/03 04:15:10;;;;;;;14.30;5.20;;;;;;;;;;4972151;28;20019;-70
2023/02/03 04:17:35;;;;;;;16.23;5.43;;;;;;;;;;4969836;28;20371;-70
2023/02/03 04:20:01;;;;;;;22.60;5.88;;;;;;;;;;4979253;28;20031;-70
2023/02/03 04:22:26;;;;;;;17.63;5.32;;;;;;;;;;4972002;28;20065;-70
2023/02/03 04:24:51;;;;;;;18.80;5.13;;;;;;;;;;4953737;28;20487;-70
2023/02/03 04:27:16;;;;;;;17.90;4.63;;;;;;;;;;4973082;28;20301;-70
2023/02/03 04:29:41;;;;;;;13.05;5.10;;;;;;;;;;4971296;28;20023;-70
2023/02/03 04:32:07;;;;;;;19.00;4.63;;;;;;;;;;4974059;28;20029;-70
2023/02/03 04:34:32;;;;;;;15.23;3.90;;;;;;;;;;4972723;28;20321;-70
2023/02/03 04:36:57;;;;;;;24.47;4.50;;;;;;;;;;4983274;28;20278;-70
2023/02/03 04:39:22;;;;;;;13.88;4.13;;;;;;;;;;4972820;28;20305;-70
2023/02/03 04:41:47;;;;;;;21.58;6.70;;;;;;;;;;4971468;28;20031;-70
2023/02/03 04:44:12;;;;;;;19.37;4.23;;;;;;;;;;4972000;28;20042;-71
2023/02/03 04:46:38;;;;;;;17.87;5.50;;;;;;;;;;4970937;28;20836;-70
2023/02/03 04:49:03;;;;;;;18.10;4.80;;;;;;;;;;5030652;22;20317;-68
2023/02/03 04:51:28;;;;;;;18.60;4.37;;;;;;;;;;4984853;28;20304;-68
2023/02/03 04:53:53;;;;;;;11.02;4.15;;;;;;;;;;4983290;28;20774;-68
2023/02/03 04:56:18;;;;;;;17.50;4.00;;;;;;;;;;4988612;28;20040;-68
2023/02/03 04:58:43;;;;;;;15.03;4.07;;;;;;;;;;4983486;28;20273;-68
2023/02/03 05:01:09;;;;;;;25.02;4.60;;;;;;;;;;4968894;28;20354;-68
2023/02/03 05:03:34;;;;;;;16.80;4.28;;;;;;;;;;4985690;28;20580;-68
2023/02/03 05:05:59;;;;;;;13.82;3.50;;;;;;;;;;4990520;28;20026;-68
2023/02/03 05:08:25;;;;;;;16.63;4.22;;;;;;;;;;4988397;28;20141;-68
2023/02/03 05:10:50;;;;;;;19.90;5.30;;;;;;;;;;4990215;28;20015;-67
2023/02/03 05:13:15;;;;;;;12.90;4.30;;;;;;;;;;4990068;28;20300;-68
2023/02/03 05:15:40;;;;;;;26.00;5.05;;;;;;;;;;4989593;28;20304;-68
2023/02/03 05:18:05;;;;;;;14.63;4.05;;;;;;;;;;4989184;28;20081;-68
2023/02/03 05:20:31;;;;;;;13.88;3.58;;;;;;;;;;4990184;28;20057;-68
2023/02/03 05:22:56;;;;;;;12.05;3.55;;;;;;;;;;4985537;28;20033;-68
2023/02/03 05:25:22;;;;;;;22.15;4.78;;;;;;;;;;4984776;28;20497;-68
2023/02/03 05:27:47;;;;;;;14.68;4.07;;;;;;;;;;4989241;28;20014;-68
2023/02/03 05:30:12;;;;;;;26.65;6.78;;;;;;;;;;4989491;28;20415;-68
2023/02/03 05:32:37;;;;;;;13.95;4.60;;;;;;;;;;4990168;28;20023;-68
2023/02/03 05:35:02;;;;;;;13.60;4.60;;;;;;;;;;4989543;28;20393;-68
2023/02/03 05:37:28;;;;;;;15.52;4.97;;;;;;;;;;4985811;28;20325;-68
2023/02/03 05:41:50;;;;;;;18.37;6.33;;;;;;;;;;4989910;28;20049;-68
2023/02/03 05:42:38;;;;;;;21.52;4.63;;;;;;;;;;4990334;28;20292;-68
2023/02/03 05:45:03;;;;;;;16.13;6.33;;;;;;;;;;4990282;28;20030;-68
2023/02/03 05:47:28;;;;;;;16.98;4.88;;;;;;;;;;4985845;28;21095;-68
2023/02/03 05:49:54;;;;;;;20.23;5.70;;;;;;;;;;4986426;28;20402;-68
2023/02/03 05:52:20;;;;;;;14.10;4.83;;;;;;;;;;4987640;28;20323;-67
2023/02/03 05:54:45;;;;;;;16.98;4.93;;;;;;;;;;4979838;28;20646;-68
2023/02/03 05:57:10;;;;;;;26.83;6.60;;;;;;;;;;4985643;28;20038;-68
2023/02/03 05:59:36;;;;;;;16.83;4.80;;;;;;;;;;4986226;28;20303;-67
2023/02/03 06:02:01;;;;;;;16.90;4.78;;;;;;;;;;4984670;28;20108;-68
2023/02/03 06:04:26;;;;;;;19.03;4.53;;;;;;;;;;4987814;28;20453;-68
2023/02/03 06:06:51;;;;;;;19.23;4.43;;;;;;;;;;4969069;28;20289;-68
2023/02/03 06:09:16;;;;;;;19.23;4.23;;;;;;;;;;4987011;28;20076;-68
2023/02/03 06:11:42;;;;;;;22.77;3.85;;;;;;;;;;4986393;28;20265;-67
2023/02/03 06:14:07;;;;;;;18.13;3.33;;;;;;;;;;4986162;28;20029;-68
2023/02/03 06:16:32;;;;;;;13.00;3.70;;;;;;;;;;4985339;28;20418;-67
2023/02/03 06:18:58;;;;;;;16.77;3.40;;;;;;;;;;4981033;28;22264;-68
2023/02/03 06:21:23;;;;;;;17.30;2.80;;;;;;;;;;4982664;28;20266;-68
2023/02/03 06:23:48;;;;;;;9.75;2.55;;;;;;;;;;4985510;28;20026;-68
2023/02/03 06:26:14;;;;;;;21.60;5.80;;;;;;;;;;4975954;28;20494;-68
2023/02/03 06:28:39;;;;;;;12.30;2.60;;;;;;;;;;4985399;28;20026;-68
2023/02/03 06:31:05;;;;;;;16.88;3.40;;;;;;;;;;4989359;28;20365;-68
2023/02/03 06:33:30;;;;;;;20.73;3.33;;;;;;;;;;4988031;28;20018;-68
2023/02/03 06:35:55;;;;;;;13.98;3.03;;;;;;;;;;4988569;28;20487;-68
2023/02/03 06:38:21;;;;;;;8.37;2.17;;;;;;;;;;4988361;28;20450;-68
2023/02/03 06:40:46;;;;;;;17.20;3.30;;;;;;;;;;4980403;28;20714;-67
2023/02/03 06:43:11;;;;;;;13.90;2.72;;;;;;;;;;4983974;28;20346;-68
2023/02/03 06:45:37;;;;;;;10.73;2.38;;;;;;;;;;4985651;28;20040;-68
2023/02/03 06:48:02;;;;;;;13.73;2.42;;;;;;;;;;4989247;28;20402;-68
2023/02/03 06:50:27;;;;;;;18.85;2.33;;;;;;;;;;4989208;28;20549;-69
2023/02/03 06:52:52;;;;;;;8.07;2.30;;;;;;;;;;4988652;28;20022;-68
2023/02/03 06:55:17;;;;;;;20.17;2.50;;;;;;;;;;4986120;28;20773;-67
2023/02/03 06:57:46;;;;;;;16.20;2.77;;;;;;;;;;4986314;28;20371;-68
2023/02/03 07:00:12;;;;;;;12.43;3.10;;;;;;;;;;4985196;28;20309;-68
2023/02/03 07:02:37;;;;;;;20.60;4.22;;;;;;;;;;4964142;28;20435;-68
2023/02/03 07:05:03;;;;;;;18.13;3.03;;;;;;;;;;4983016;28;20022;-67
2023/02/03 07:07:30;;;;;;;12.38;2.65;;;;;;;;;;4971283;28;20316;-67
2023/02/03 07:09:55;;;;;;;10.20;1.77;;;;;;;;;;4989040;28;20474;-67
2023/02/03 07:12:20;;;;;;;21.80;3.97;;;;;;;;;;4990392;28;20117;-67
2023/02/03 07:14:46;;;;;;;18.77;3.67;;;;;;;;;;4990851;28;20278;-68
2023/02/03 07:17:11;;;;;;;14.20;2.90;;;;;;;;;;4986313;28;20495;-68
2023/02/03 07:19:36;;;;;;;17.73;3.10;;;;;;;;;;4991922;28;20269;-68
2023/02/03 07:22:01;;;;;;;14.67;3.37;;;;;;;;;;4988844;28;20022;-68
2023/02/03 07:24:26;;;;;;;11.43;2.47;;;;;;;;;;4989867;28;22454;-67
2023/02/03 07:26:52;;;;;;;13.60;2.80;;;;;;;;;;4987988;28;20478;-68
2023/02/03 07:29:17;;;;;;;12.82;3.20;;;;;;;;;;4985355;28;21136;-68
2023/02/03 07:31:42;;;;;;;13.43;2.60;;;;;;;;;;4988061;28;20101;-68
2023/02/03 07:34:07;;;;;;;15.27;2.83;;;;;;;;;;4985678;28;20309;-68
2023/02/03 07:36:33;;;;;;;22.90;4.45;;;;;;;;;;4987720;28;20758;-68
2023/02/03 07:38:58;;;;;;;11.15;2.10;;;;;;;;;;4986043;28;20026;-68
2023/02/03 07:41:23;;;;;;;10.57;2.00;;;;;;;;;;4989651;28;20025;-68
2023/02/03 07:43:48;;;;;;;10.02;2.38;;;;;;;;;;4985548;28;20053;-68
2023/02/03 07:46:14;;;;;;;12.80;2.75;;;;;;;;;;4986448;28;20037;-68
2023/02/03 07:48:40;;;;;;;15.73;2.65;;;;;;;;;;4985292;28;20042;-68
2023/02/03 07:51:05;;;;;;;14.33;2.13;;;;;;;;;;4997365;28;20478;-68
2023/02/03 07:53:30;;;;;;;13.00;2.25;;;;;;;;;;4986527;28;20285;-68
2023/02/03 07:56:00;;;;;;;9.43;2.22;;;;;;;;;;4985890;28;20030;-68
2023/02/03 07:58:25;;;;;;;13.05;2.88;;;;;;;;;;4989730;28;20081;-68
2023/02/03 08:00:50;;;;;;;15.30;2.57;;;;;;;;;;4987641;28;20022;-68
2023/02/03 08:03:15;;;;;;;6.67;1.70;;;;;;;;;;4991664;28;20816;-68
2023/02/03 08:05:41;;;;;;;12.13;3.13;;;;;;;;;;4989867;28;20286;-68
2023/02/03 08:08:06;;;;;;;12.57;2.53;;;;;;;;;;4985652;28;20678;-68
2023/02/03 08:10:31;;;;;;;14.30;2.47;;;;;;;;;;4988858;28;20313;-68
2023/02/03 08:12:56;;;;;;;7.30;2.20;;;;;;;;;;4990270;28;20065;-68
2023/02/03 08:15:21;;;;;;;9.70;2.22;;;;;;;;;;4986943;28;20031;-68
2023/02/03 08:17:50;;;;;;;7.90;1.77;;;;;;;;;;4983661;28;20030;-68
2023/02/03 08:20:15;;;;;;;10.98;2.25;;;;;;;;;;4987768;28;20320;-68
2023/02/03 08:22:40;;;;;;;12.50;1.88;;;;;;;;;;4987025;28;20022;-68
2023/02/03 08:25:06;;;;;;;8.68;2.08;;;;;;;;;;4971986;28;20491;-68
2023/02/03 08:27:31;;;;;;;10.32;1.90;;;;;;;;;;4987555;28;20030;-68
2023/02/03 08:29:57;;;;;;;12.27;3.80;;;;;;;;;;4989607;28;20106;-68
2023/02/03 08:32:23;;;;;;;11.23;3.08;;;;;;;;;;4986089;28;20488;-68
2023/02/03 08:34:50;;;;;;;14.82;2.78;;;;;;;;;;4987036;28;20025;-68
2023/02/03 08:37:17;;;;;;;6.18;1.77;;;;;;;;;;4986252;28;20064;-68
2023/02/03 08:39:43;;;;;;;16.05;2.20;;;;;;;;;;4990515;28;20084;-68
2023/02/03 08:42:08;;;;;;;10.30;3.38;;;;;;;;;;4988736;28;20034;-68
2023/02/03 08:44:33;;;;;;;8.38;2.00;;;;;;;;;;4989332;28;20022;-68
2023/02/03 08:46:58;;;;;;;10.50;2.10;;;;;;;;;;4981656;28;20030;-68
2023/02/03 08:49:28;;;;;;;15.85;2.83;;;;;;;;;;4990578;28;20105;-68
2023/02/03 08:51:53;;;;;;;11.15;2.67;;;;;;;;;;4988568;28;20491;-68
2023/02/03 08:54:18;;;;;;;7.85;2.35;;;;;;;;;;4991572;28;20022;-68
2023/02/03 08:56:43;;;;;;;14.40;2.63;;;;;;;;;;4984245;28;20046;-68
2023/02/03 08:59:09;;;;;;;8.82;2.13;;;;;;;;;;4987797;28;20050;-68
2023/02/03 09:01:34;;;;;;;9.63;2.80;;;;;;;;;;4985082;28;20499;-68
2023/02/03 09:04:05;;;;;;;13.10;3.22;;;;;;;;;;4986323;28;20022;-68
2023/02/03 09:06:31;;;;;;;9.45;2.25;;;;;;;;;;4985846;28;20026;-68
2023/02/03 09:08:56;;;;;;;11.02;2.38;;;;;;;;;;4988431;28;20463;-67
2023/02/03 09:11:21;;;;;;;8.50;2.20;;;;;;;;;;4986378;28;20426;-68
2023/02/03 09:13:47;;;;;;;7.50;2.15;;;;;;;;;;4985979;28;20281;-68
2023/02/03 09:16:13;;;;;;;12.40;2.65;;;;;;;;;;4984025;28;20394;-67
2023/02/03 09:18:38;;;;;;;14.80;3.33;;;;;;;;;;4990053;28;20451;-68
2023/02/03 09:21:05;;;;;;;13.40;2.47;;;;;;;;;;4984575;28;20104;-68
2023/02/03 09:23:30;;;;;;;8.32;2.22;;;;;;;;;;4984403;28;20050;-68
2023/02/03 09:26:00;;;;;;;14.37;2.80;;;;;;;;;;4984243;28;20475;-68
2023/02/03 09:28:25;;;;;;;11.55;3.13;;;;;;;;;;4985947;28;20270;-68
2023/02/03 09:30:51;;;;;;;13.27;2.92;;;;;;;;;;4987166;28;20394;-68
2023/02/03 09:33:16;;;;;;;12.60;2.60;;;;;;;;;;4984293;28;20071;-68
2023/02/03 09:35:41;;;;;;;9.00;2.33;;;;;;;;;;4982966;28;20313;-68
2023/02/03 09:38:06;;;;;;;14.00;2.95;;;;;;;;;;4987999;28;20288;-68
2023/02/03 09:40:35;;;;;;;10.93;3.43;;;;;;;;;;4989326;28;20390;-67
2023/02/03 09:43:08;;;;;;;14.25;3.38;;;;;;;;;;4989194;28;20285;-68
2023/02/03 09:45:33;;;;;;;11.32;3.25;;;;;;;;;;4986042;28;20114;-67
2023/02/03 09:48:02;;;;;;;10.50;3.20;;;;;;;;;;4987907;28;20481;-68
2023/02/03 09:50:28;;;;;;;22.80;3.75;;;;;;;;;;4987631;28;20058;-67
2023/02/03 09:52:54;;;;;;;13.02;3.28;;;;;;;;;;4987509;28;20018;-67
2023/02/03 09:55:24;;;;;;;9.60;3.33;;;;;;;;;;4983957;28;20032;-67
2023/02/03 09:57:50;;;;;;;;;;;;;;;;;;4989355;28;20027;-67
2023/02/03 10:00:20;;;;;;;9.13;2.58;;;;;;;;;;4986595;28;20259;-67
2023/02/03 10:02:57;;;;;;;8.85;3.15;;;;;;;;;;4987701;28;20019;-67
2023/02/03 10:05:41;;;;;;;14.52;3.30;;;;;;;;;;4985982;28;20034;-67
2023/02/03 10:08:12;;;;;;;10.60;4.00;;;;;;;;;;4987962;28;20068;-67
2023/02/03 10:10:37;;;;;;;12.82;4.88;;;;;;;;;;4986391;28;20026;-68
2023/02/03 10:13:06;;;;;;;12.45;3.60;;;;;;;;;;4987463;28;20057;-67
2023/02/03 10:15:37;;;;;;;15.38;3.28;;;;;;;;;;4986903;28;20211;-67
2023/02/03 10:18:08;;;;;;;14.93;4.47;;;;;;;;;;4986565;28;20037;-67
2023/02/03 10:20:37;;;;;;;14.20;3.55;;;;;;;;;;4986193;28;20026;-67
2023/02/03 10:23:05;;;;;;;7.97;3.25;;;;;;;;;;4989743;28;20018;-68
2023/02/03 10:25:33;;;;;;;8.55;4.18;;;;;;;;;;4986325;28;20030;-67
2023/02/03 10:28:00;;;;;;;22.73;5.97;;;;;;;;;;4988550;28;20117;-67
2023/02/03 10:30:31;;;;;;;17.83;5.65;;;;;;;;;;4987922;28;20066;-68
2023/02/03 10:33:01;;;;;;;12.60;4.63;;;;;;;;;;4987252;28;20014;-67
2023/02/03 10:35:31;;;;;;;15.32;5.03;;;;;;;;;;4987822;28;20049;-67
2023/02/03 10:37:56;;;;;;;;;;;;;;;;;;4987032;28;20113;-67
2023/02/03 10:40:23;;;;;;;14.13;5.53;;;;;;;;;;4988464;28;20008;-68
2023/02/03 10:45:35;;;;;;;20.52;5.72;;;;;;;;;;4981892;28;20037;-68
2023/02/03 10:48:01;;;;;;;26.50;6.47;;;;;;;;;;4985288;28;20085;-68
2023/02/03 10:50:30;;;;;;;17.45;5.82;;;;;;;;;;4985412;28;20382;-67
2023/02/03 10:53:24;;;;;;;18.83;5.93;;;;;;;;;;4986808;28;20045;-67
2023/02/03 10:56:05;;;;;;;19.08;6.45;;;;;;;;;;4963434;28;20046;-67
2023/02/03 10:58:32;;;;;;;12.73;4.93;;;;;;;;;;4985598;28;20046;-68
2023/02/03 11:01:11;;;;;;;19.25;6.63;;;;;;;;;;4983323;28;20171;-67
2023/02/03 11:03:37;;;;;;;19.55;5.78;;;;;;;;;;4985712;28;20441;-67
2023/02/03 11:06:13;;;;;;;15.70;5.53;;;;;;;;;;4986396;28;20165;-67
2023/02/03 11:08:39;;;;;;;20.95;5.53;;;;;;;;;;4987717;28;20498;-69
2023/02/03 11:11:19;;;;;;;17.17;5.80;;;;;;;;;;4989924;28;20033;-68
2023/02/03 11:13:44;;;;;;;12.05;5.10;;;;;;;;;;4987664;28;20105;-68
2023/02/03 11:16:09;;;;;;;13.17;5.37;;;;;;;;;;4990435;28;20101;-68
2023/02/03 11:18:36;;;;;;;17.58;6.28;;;;;;;;;;4991487;28;20626;-68
2023/02/03 11:21:06;;;;;;;16.90;6.53;;;;;;;;;;4973412;28;20026;-68
2023/02/03 11:23:31;;;;;;;14.45;6.82;;;;;;;;;;4988320;28;20030;-67
2023/02/03 11:25:56;;;;;;;14.45;6.88;;;;;;;;;;4991273;28;20450;-67
2023/02/03 11:28:27;;;;;;;19.67;7.20;;;;;;;;;;4991671;28;20057;-67
2023/02/03 11:30:56;;;;;;;20.92;7.72;;;;;;;;;;4988605;28;20273;-68
2023/02/03 11:33:23;;;;;;;17.90;7.72;;;;;;;;;;4990171;28;20030;-68
2023/02/03 11:35:58;;;;;;;14.70;7.65;;;;;;;;;;4987736;28;20022;-68
2023/02/03 11:38:30;;;;;;;17.67;8.55;;;;;;;;;;4989543;28;20537;-67
2023/02/03 11:41:02;;;;;;;14.40;8.15;;;;;;;;;;4990510;28;20069;-68
2023/02/03 11:43:28;;;;;;;20.58;6.88;;;;;;;;;;4986372;28;20391;-67
2023/02/03 11:45:58;;;;;;;16.35;7.90;;;;;;;;;;4987308;28;20034;-67
2023/02/03 11:48:23;;;;;;;;;;;;;;;;;;4969436;28;20042;-68
2023/02/03 11:50:52;;;;;;;20.33;8.65;;;;;;;;;;4987860;28;19914;-68
2023/02/03 11:53:23;;;;;;;21.30;8.82;;;;;;;;;;4990487;28;20019;-68
2023/02/03 11:56:02;;;;;;;22.33;10.02;;;;;;;;;;4988812;28;20729;-68
2023/02/03 11:58:28;;;;;;;19.35;8.75;;;;;;;;;;4962525;28;20023;-68
2023/02/03 12:01:05;;;;;;;18.90;8.80;;;;;;;;;;4987900;28;20070;-68
2023/02/03 12:03:30;;;;;;;15.48;7.70;;;;;;;;;;4966873;28;20762;-68
2023/02/03 12:05:59;;;;;;;25.10;9.65;;;;;;;;;;4992062;28;20053;-68
2023/02/03 12:08:24;;;;;;;16.75;8.40;;;;;;;;;;4972731;28;20057;-68
2023/02/03 12:11:07;;;;;;;31.27;10.07;;;;;;;;;;4991133;28;20045;-67
2023/02/03 12:13:38;;;;;;;24.30;10.25;;;;;;;;;;4985790;28;20325;-67
2023/02/03 12:16:06;;;;;;;17.45;9.57;;;;;;;;;;4987822;28;20022;-68
2023/02/03 12:18:34;;;;;;;21.63;9.95;;;;;;;;;;4991077;28;20109;-68
2023/02/03 12:21:08;;;;;;;19.77;8.38;;;;;;;;;;4986980;28;20022;-68
2023/02/03 12:23:36;;;;;;;17.65;10.20;;;;;;;;;;4986373;28;20494;-68
2023/02/03 12:26:13;;;;;;;24.35;9.15;;;;;;;;;;4986045;28;20098;-68
2023/02/03 12:28:39;;;;;;;27.42;9.23;;;;;;;;;;4986719;28;20018;-68
2023/02/03 12:31:10;;;;;;;21.77;10.33;;;;;;;;;;4988574;28;20014;-68
2023/02/03 12:33:48;;;;;;;18.58;9.00;;;;;;;;;;4986770;28;20729;-68
2023/02/03 12:36:34;;;;;;;15.68;10.48;;;;;;;;;;4983126;28;20077;-68
2023/02/03 12:39:08;;;;;;;19.80;8.93;;;;;;;;;;4986679;28;20026;-68
2023/02/03 12:41:36;;;;;;;20.20;8.50;;;;;;;;;;4985693;28;20031;-68
2023/02/03 12:44:04;;;;;;;16.60;9.77;;;;;;;;;;4991233;28;20093;-68
2023/02/03 12:46:31;;;;;;;14.88;8.90;;;;;;;;;;4986482;28;20420;-68
2023/02/03 12:48:57;;;;;;;19.95;9.05;;;;;;;;;;4991252;28;20108;-68
2023/02/03 12:51:29;;;;;;;17.70;9.03;;;;;;;;;;4988693;28;20053;-68
2023/02/03 12:53:57;;;;;;;23.13;10.55;;;;;;;;;;4985811;28;20285;-68
2023/02/03 12:56:29;;;;;;;21.05;9.98;;;;;;;;;;4985504;28;20030;-68
2023/02/03 12:58:57;;;;;;;23.77;11.88;;;;;;;;;;4984360;28;20026;-68
2023/02/03 13:01:34;;;;;;;23.20;10.65;;;;;;;;;;4985535;28;20033;-68
2023/02/03 13:04:07;;;;;;;22.30;10.98;;;;;;;;;;4990189;28;20026;-68
2023/02/03 13:06:51;;;;;;;23.63;11.63;;;;;;;;;;4985593;28;20030;-68
2023/02/03 13:09:25;;;;;;;25.15;11.50;;;;;;;;;;4986737;28;20049;-68
2023/02/03 13:11:57;;;;;;;15.00;9.98;;;;;;;;;;4985952;28;20026;-68
2023/02/03 13:14:25;;;;;;;26.13;10.98;;;;;;;;;;4990476;28;20022;-68
2023/02/03 13:16:54;;;;;;;22.13;10.48;;;;;;;;;;4987987;28;20018;-68
2023/02/03 13:19:20;;;;;;;18.33;10.30;;;;;;;;;;4990351;28;20025;-68
2023/02/03 13:21:49;;;;;;;17.35;11.02;;;;;;;;;;4989630;28;20089;-69
2023/02/03 13:24:14;;;;;;;21.90;9.00;;;;;;;;;;4987384;28;20021;-68
2023/02/03 13:26:49;;;;;;;16.92;9.35;;;;;;;;;;4988487;28;20018;-68
2023/02/03 13:29:41;;;;;;;18.38;9.20;;;;;;;;;;4989268;28;20015;-68
2023/02/03 13:32:06;;;;;;;24.60;10.10;;;;;;;;;;4977932;28;20049;-69
2023/02/03 13:34:40;;;;;;;22.02;9.90;;;;;;;;;;4988177;28;20026;-68
2023/02/03 13:37:18;;;;;;;27.42;9.07;;;;;;;;;;4988980;28;20274;-68
2023/02/03 13:39:52;;;;;;;19.52;8.52;;;;;;;;;;4986574;28;20022;-68
2023/02/03 13:42:21;;;;;;;18.73;7.78;;;;;;;;;;4988462;28;20018;-68
2023/02/03 13:44:50;;;;;;;18.42;7.00;;;;;;;;;;4987335;28;20489;-68
2023/02/03 13:47:17;;;;;;;22.08;8.00;;;;;;;;;;4968884;28;20529;-67
2023/02/03 13:49:45;;;;;;;16.58;8.02;;;;;;;;;;4987242;28;20023;-68
2023/02/03 13:52:29;;;;;;;24.65;8.32;;;;;;;;;;4987774;28;20057;-68
2023/02/03 13:54:55;;;;;;;20.58;8.25;;;;;;;;;;4989200;28;20049;-68
2023/02/03 13:57:22;;;;;;;14.48;7.10;;;;;;;;;;4984852;28;20029;-68
2023/02/03 13:59:48;;;;;;;21.08;7.40;;;;;;;;;;4989308;28;20022;-68
2023/02/03 14:02:23;;;;;;;14.55;5.45;;;;;;;;;;4985453;28;20022;-69
2023/02/03 14:04:55;;;;;;;21.48;8.63;;;;;;;;;;4987701;28;20475;-68
2023/02/03 14:07:35;;;;;;;15.45;5.80;;;;;;;;;;4986964;28;20022;-68
2023/02/03 14:10:15;;;;;;;14.88;5.75;;;;;;;;;;4986234;28;20064;-68
2023/02/03 14:12:50;;;;;;;15.05;5.18;;;;;;;;;;4984346;28;20018;-69
2023/02/03 14:15:23;;;;;;;17.30;5.50;;;;;;;;;;4987691;28;20097;-68
2023/02/03 14:17:49;;;;;;;12.07;4.88;;;;;;;;;;4987097;28;20117;-68
2023/02/03 14:20:26;;;;;;;25.73;6.00;;;;;;;;;;4987702;28;20110;-69
2023/02/03 14:22:53;;;;;;;9.75;4.18;;;;;;;;;;4987204;28;20490;-67
2023/02/03 14:25:19;;;;;;;13.60;5.20;;;;;;;;;;4985957;28;20104;-68
2023/02/03 14:27:44;;;;;;;15.52;5.45;;;;;;;;;;4986787;28;20022;-69
2023/02/03 14:30:13;;;;;;;12.63;4.95;;;;;;;;;;4987949;28;20527;-69
2023/02/03 14:32:47;;;;;;;13.43;5.13;;;;;;;;;;4984552;28;20304;-67
2023/02/03 14:35:16;;;;;;;20.77;6.78;;;;;;;;;;4987337;28;20094;-68
2023/02/03 14:37:50;;;;;;;17.77;4.47;;;;;;;;;;4989222;28;20364;-68